createdAt,value
2022-10-30T00:01:51.244Z,12.97
2022-10-30T00:04:18.860Z,12.97
2022-10-30T00:06:46.398Z,12.97
2022-10-30T00:09:14.074Z,12.95
2022-10-30T00:11:43.496Z,12.91
2022-10-30T00:14:11.126Z,12.91
2022-10-30T00:16:38.656Z,12.90
2022-10-30T00:19:06.464Z,12.89
2022-10-30T00:21:34.021Z,12.88
2022-10-30T00:24:01.578Z,12.86
2022-10-30T00:26:29.094Z,12.87
2022-10-30T00:28:58.329Z,12.86
2022-10-30T00:31:26.096Z,12.85
2022-10-30T00:33:54.944Z,12.84
2022-10-30T00:36:23.662Z,12.85
2022-10-30T00:38:51.363Z,12.85
2022-10-30T00:41:21.769Z,12.86
2022-10-30T00:43:49.553Z,12.87
2022-10-30T00:46:26.236Z,12.89
2022-10-30T00:48:58.021Z,12.88
2022-10-30T00:51:26.223Z,12.86
2022-10-30T00:53:54.484Z,12.86
2022-10-30T00:56:23.884Z,12.85
2022-10-30T00:58:54.994Z,12.84
2022-10-30T01:01:27.567Z,12.85
2022-10-30T01:03:57.317Z,12.84
2022-10-30T01:06:25.985Z,12.83
2022-10-30T01:08:58.855Z,12.81
2022-10-30T01:11:27.820Z,12.77
2022-10-30T01:13:57.910Z,12.75
2022-10-30T01:16:54.419Z,12.72
2022-10-30T01:19:32.009Z,12.67
2022-10-30T01:22:12.568Z,12.66
2022-10-30T01:24:50.698Z,12.64
2022-10-30T01:27:33.864Z,12.63
2022-10-30T01:30:13.361Z,12.62
2022-10-30T01:33:01.113Z,12.61
2022-10-30T01:35:36.246Z,12.61
2022-10-30T01:38:10.969Z,12.60
2022-10-30T01:40:38.707Z,12.59
2022-10-30T01:43:06.239Z,12.56
2022-10-30T01:45:51.533Z,12.57
2022-10-30T01:48:48.904Z,12.55
2022-10-30T01:51:25.344Z,12.55
2022-10-30T01:54:03.836Z,12.54
2022-10-30T01:56:40.865Z,12.55
2022-10-30T01:59:14.457Z,12.55
2022-10-30T02:01:42.328Z,12.55
2022-10-30T02:04:14.162Z,12.57
2022-10-30T02:06:42.198Z,12.57
2022-10-30T02:09:09.813Z,12.56
2022-10-30T02:11:39.565Z,12.55
2022-10-30T02:14:08.599Z,12.54
2022-10-30T02:16:40.301Z,12.54
2022-10-30T02:19:07.868Z,12.54
2022-10-30T02:21:36.793Z,12.51
2022-10-30T02:24:04.339Z,12.50
2022-10-30T02:26:31.886Z,12.50
2022-10-30T02:28:59.399Z,12.49
2022-10-30T02:31:26.960Z,12.49
2022-10-30T02:33:54.485Z,12.49
2022-10-30T02:36:22.059Z,12.48
2022-10-30T02:38:50.921Z,12.49
2022-10-30T02:41:18.464Z,12.48
2022-10-30T02:43:46.025Z,12.47
2022-10-30T02:46:13.648Z,12.47
2022-10-30T02:48:41.178Z,12.45
2022-10-30T02:51:08.715Z,12.42
2022-10-30T02:53:36.278Z,12.42
2022-10-30T02:56:06.724Z,12.41
2022-10-30T02:58:34.328Z,12.40
2022-10-30T03:01:06.920Z,12.39
2022-10-30T03:03:34.686Z,12.39
2022-10-30T03:06:02.914Z,12.38
2022-10-30T03:08:30.460Z,12.38
2022-10-30T03:11:02.781Z,12.38
2022-10-30T03:13:33.366Z,12.38
2022-10-30T03:16:02.518Z,12.36
2022-10-30T03:18:30.132Z,12.34
2022-10-30T03:20:59.149Z,12.32
2022-10-30T03:23:27.135Z,12.30
2022-10-30T03:25:55.782Z,12.29
2022-10-30T03:28:24.332Z,12.27
2022-10-30T03:30:59.024Z,12.24
2022-10-30T03:33:26.549Z,12.21
2022-10-30T03:35:54.109Z,12.18
2022-10-30T03:38:21.673Z,12.16
2022-10-30T03:40:49.276Z,12.12
2022-10-30T03:43:17.109Z,12.09
2022-10-30T03:45:47.858Z,12.02
2022-10-30T03:48:17.601Z,11.96
2022-10-30T03:50:45.989Z,11.90
2022-10-30T03:53:14.126Z,11.86
2022-10-30T03:55:42.296Z,11.79
2022-10-30T03:58:09.975Z,11.78
2022-10-30T04:00:37.870Z,11.76
2022-10-30T04:03:07.998Z,11.74
2022-10-30T04:05:38.081Z,11.72
2022-10-30T04:08:08.371Z,11.70
2022-10-30T04:10:36.397Z,11.71
2022-10-30T04:13:06.182Z,11.74
2022-10-30T04:15:34.316Z,11.71
2022-10-30T04:18:02.628Z,11.68
2022-10-30T04:20:31.196Z,11.65
2022-10-30T04:23:03.184Z,11.64
2022-10-30T04:25:31.786Z,11.60
2022-10-30T04:27:59.792Z,11.56
2022-10-30T04:30:28.055Z,11.54
2022-10-30T04:32:57.205Z,11.50
2022-10-30T04:35:26.447Z,11.46
2022-10-30T04:37:55.018Z,11.37
2022-10-30T04:40:25.097Z,11.30
2022-10-30T04:42:52.981Z,11.21
2022-10-30T04:45:21.069Z,11.17
2022-10-30T04:47:48.835Z,11.09
2022-10-30T04:50:16.553Z,11.06
2022-10-30T04:52:44.107Z,11.02
2022-10-30T04:55:12.575Z,10.98
2022-10-30T04:57:41.581Z,10.93
2022-10-30T05:00:10.269Z,10.92
2022-10-30T05:02:38.093Z,10.89
2022-10-30T05:05:06.563Z,10.83
2022-10-30T05:07:34.098Z,10.80
2022-10-30T05:10:01.658Z,10.77
2022-10-30T05:12:29.179Z,10.73
2022-10-30T05:14:58.071Z,10.68
2022-10-30T05:17:25.732Z,10.65
2022-10-30T05:19:54.364Z,10.59
2022-10-30T05:22:21.883Z,10.54
2022-10-30T05:24:49.405Z,10.49
2022-10-30T05:27:17.173Z,10.43
2022-10-30T05:29:44.699Z,10.37
2022-10-30T05:34:42.078Z,10.31
2022-10-30T05:37:09.627Z,10.27
2022-10-30T05:39:37.259Z,10.23
2022-10-30T05:42:08.473Z,10.20
2022-10-30T05:44:59.338Z,10.16
2022-10-30T05:47:26.387Z,10.13
2022-10-30T05:49:53.948Z,10.09
2022-10-30T05:52:21.549Z,10.08
2022-10-30T05:54:49.178Z,10.07
2022-10-30T05:57:16.730Z,10.07
2022-10-30T05:59:44.286Z,10.09
2022-10-30T06:02:11.920Z,10.12
2022-10-30T06:04:40.856Z,10.16
2022-10-30T06:07:08.396Z,10.20
2022-10-30T06:09:35.933Z,10.21
2022-10-30T06:12:03.663Z,10.25
2022-10-30T06:14:31.319Z,10.27
2022-10-30T06:16:58.961Z,10.31
2022-10-30T06:19:26.759Z,10.34
2022-10-30T06:21:55.761Z,10.38
2022-10-30T06:24:23.279Z,10.45
2022-10-30T06:26:51.036Z,10.50
2022-10-30T06:29:18.586Z,10.57
2022-10-30T06:31:46.200Z,10.63
2022-10-30T06:34:13.781Z,10.73
2022-10-30T06:36:41.420Z,10.81
2022-10-30T06:39:10.420Z,10.91
2022-10-30T06:41:38.136Z,10.98
2022-10-30T06:44:06.057Z,11.07
2022-10-30T06:46:34.024Z,11.16
2022-10-30T06:49:01.797Z,11.27
2022-10-30T06:51:29.709Z,11.38
2022-10-30T06:53:57.333Z,11.51
2022-10-30T06:56:26.187Z,11.64
2022-10-30T06:58:53.711Z,11.78
2022-10-30T07:01:21.260Z,11.91
2022-10-30T07:03:48.812Z,11.99
2022-10-30T07:06:16.367Z,12.08
2022-10-30T07:08:44.047Z,12.14
2022-10-30T07:11:11.576Z,12.20
2022-10-30T07:13:40.457Z,12.28
2022-10-30T07:16:08.317Z,12.32
2022-10-30T07:18:35.952Z,12.41
2022-10-30T07:21:03.609Z,12.48
2022-10-30T07:23:31.143Z,12.57
2022-10-30T07:26:03.796Z,12.66
2022-10-30T07:28:32.406Z,12.78
2022-10-30T07:31:01.345Z,12.90
2022-10-30T07:33:28.861Z,13.01
2022-10-30T07:35:56.442Z,13.14
2022-10-30T07:38:24.053Z,13.30
2022-10-30T07:40:53.672Z,13.43
2022-10-30T07:43:21.240Z,13.55
2022-10-30T07:45:48.764Z,13.68
2022-10-30T07:48:17.685Z,13.78
2022-10-30T07:50:45.242Z,13.90
2022-10-30T07:53:12.767Z,13.97
2022-10-30T07:55:40.296Z,14.08
2022-10-30T07:58:07.809Z,14.15
2022-10-30T08:00:35.360Z,14.16
2022-10-30T08:03:03.141Z,14.25
2022-10-30T08:05:32.392Z,14.32
2022-10-30T08:08:00.210Z,14.40
2022-10-30T08:10:28.128Z,14.44
2022-10-30T08:12:55.712Z,14.44
2022-10-30T08:15:24.311Z,14.48
2022-10-30T08:17:52.354Z,14.50
2022-10-30T08:20:22.711Z,14.52
2022-10-30T08:22:52.777Z,14.51
2022-10-30T08:25:21.770Z,14.55
2022-10-30T08:27:54.903Z,14.62
2022-10-30T08:30:23.029Z,14.72
2022-10-30T08:32:50.584Z,14.85
2022-10-30T08:35:19.992Z,14.96
2022-10-30T08:37:48.079Z,15.11
2022-10-30T08:40:42.300Z,15.22
2022-10-30T08:43:11.273Z,15.38
2022-10-30T08:45:39.040Z,15.49
2022-10-30T08:48:07.360Z,15.62
2022-10-30T08:50:35.320Z,15.74
2022-10-30T08:53:04.406Z,15.88
2022-10-30T08:55:32.504Z,15.99
2022-10-30T08:58:01.949Z,16.08
2022-10-30T09:00:29.661Z,16.19
2022-10-30T09:02:57.944Z,16.35
2022-10-30T09:05:25.913Z,16.50
2022-10-30T09:07:57.940Z,16.62
2022-10-30T09:10:25.740Z,16.74
2022-10-30T09:12:55.891Z,16.86
2022-10-30T09:15:25.488Z,16.83
2022-10-30T09:17:57.712Z,16.70
2022-10-30T09:20:25.913Z,16.71
2022-10-30T09:22:53.452Z,16.73
2022-10-30T09:25:21.178Z,16.72
2022-10-30T09:27:48.979Z,16.80
2022-10-30T09:30:16.595Z,16.84
2022-10-30T09:32:45.498Z,16.87
2022-10-30T09:35:13.656Z,16.91
2022-10-30T09:37:41.241Z,17.01
2022-10-30T09:40:18.281Z,17.04
2022-10-30T09:42:48.324Z,17.07
2022-10-30T09:45:49.668Z,17.14
2022-10-30T09:48:48.500Z,17.28
2022-10-30T09:51:35.269Z,17.35
2022-10-30T09:54:11.822Z,17.40
2022-10-30T09:56:45.556Z,17.39
2022-10-30T09:59:25.729Z,17.36
2022-10-30T10:02:01.946Z,17.34
2022-10-30T10:04:39.185Z,17.40
2022-10-30T10:07:16.322Z,17.46
2022-10-30T10:09:45.477Z,17.47
2022-10-30T10:12:19.129Z,17.50
2022-10-30T10:14:49.046Z,17.61
2022-10-30T10:17:21.703Z,17.66
2022-10-30T10:19:56.639Z,17.70
2022-10-30T10:22:30.830Z,17.77
2022-10-30T10:24:58.414Z,17.87
2022-10-30T10:27:42.229Z,17.97
2022-10-30T10:30:14.744Z,18.09
2022-10-30T10:33:01.043Z,18.14
2022-10-30T10:35:54.932Z,18.19
2022-10-30T10:38:36.381Z,18.28
2022-10-30T10:41:18.644Z,18.31
2022-10-30T10:44:02.285Z,18.33
2022-10-30T10:46:48.137Z,18.32
2022-10-30T10:49:28.076Z,18.39
2022-10-30T10:52:01.672Z,18.36
2022-10-30T10:54:34.366Z,18.35
2022-10-30T10:57:05.469Z,18.32
2022-10-30T10:59:37.825Z,18.24
2022-10-30T11:02:29.950Z,18.15
2022-10-30T11:05:05.465Z,18.17
2022-10-30T11:07:38.081Z,18.21
2022-10-30T11:10:13.585Z,18.21
2022-10-30T11:12:41.164Z,18.20
2022-10-30T11:15:22.428Z,18.26
2022-10-30T11:17:57.127Z,18.28
2022-10-30T11:20:32.144Z,18.29
2022-10-30T11:23:01.244Z,18.32
2022-10-30T11:25:37.353Z,18.37
2022-10-30T11:28:06.884Z,18.40
2022-10-30T11:30:34.411Z,18.46
2022-10-30T11:33:22.925Z,18.50
2022-10-30T11:35:50.440Z,18.52
2022-10-30T11:38:21.824Z,18.46
2022-10-30T11:40:53.399Z,18.44
2022-10-30T11:43:25.436Z,18.47
2022-10-30T11:45:53.431Z,18.60
2022-10-30T11:48:24.599Z,18.73
2022-10-30T11:50:55.229Z,18.83
2022-10-30T11:53:31.049Z,18.88
2022-10-30T11:55:59.758Z,18.90
2022-10-30T11:58:31.953Z,18.97
2022-10-30T12:01:02.340Z,19.04
2022-10-30T12:03:34.824Z,19.04
2022-10-30T12:06:11.006Z,19.08
2022-10-30T12:08:39.915Z,19.07
2022-10-30T12:11:07.897Z,19.06
2022-10-30T12:13:40.154Z,19.01
2022-10-30T12:16:13.957Z,19.05
2022-10-30T12:18:42.686Z,19.05
2022-10-30T12:21:12.004Z,18.97
2022-10-30T12:23:41.229Z,19.08
2022-10-30T12:26:12.379Z,19.05
2022-10-30T12:28:40.550Z,19.06
2022-10-30T12:31:15.113Z,19.09
2022-10-30T12:33:49.935Z,19.13
2022-10-30T12:36:21.618Z,19.13
2022-10-30T12:38:53.000Z,19.18
2022-10-30T12:41:25.188Z,19.14
2022-10-30T12:44:00.397Z,19.17
2022-10-30T12:46:34.317Z,19.16
2022-10-30T12:49:11.727Z,19.18
2022-10-30T12:51:47.544Z,19.21
2022-10-30T12:54:25.857Z,19.22
2022-10-30T12:57:03.178Z,19.21
2022-10-30T12:59:37.820Z,19.25
2022-10-30T13:02:15.012Z,19.30
2022-10-30T13:04:49.225Z,19.28
2022-10-30T13:07:23.586Z,19.29
2022-10-30T13:10:03.143Z,19.31
2022-10-30T13:12:36.053Z,19.32
2022-10-30T13:15:07.396Z,19.33
2022-10-30T13:17:35.022Z,19.32
2022-10-30T13:20:02.607Z,19.29
2022-10-30T13:22:35.453Z,19.22
2022-10-30T13:25:13.032Z,19.21
2022-10-30T13:27:46.957Z,19.19
2022-10-30T13:30:18.408Z,19.21
2022-10-30T13:33:00.501Z,19.19
2022-10-30T13:35:36.834Z,19.13
2022-10-30T13:38:17.990Z,19.12
2022-10-30T13:40:51.919Z,19.11
2022-10-30T13:43:26.440Z,19.05
2022-10-30T13:46:22.132Z,19.06
2022-10-30T13:49:03.632Z,19.02
2022-10-30T13:51:36.416Z,18.98
2022-10-30T13:54:11.281Z,18.94
2022-10-30T13:56:41.627Z,18.91
2022-10-30T13:59:23.063Z,18.83
2022-10-30T14:02:00.722Z,18.75
2022-10-30T14:04:37.631Z,18.66
2022-10-30T14:07:19.968Z,18.63
2022-10-30T14:09:57.916Z,18.53
2022-10-30T14:12:46.900Z,18.42
2022-10-30T14:15:27.457Z,18.34
2022-10-30T14:18:25.444Z,18.21
2022-10-30T14:20:54.344Z,18.12
2022-10-30T14:23:23.990Z,18.05
2022-10-30T14:26:14.001Z,17.98
2022-10-30T14:28:45.143Z,17.91
2022-10-30T14:31:16.535Z,17.84
2022-10-30T14:33:49.915Z,17.78
2022-10-30T14:36:20.890Z,17.71
2022-10-30T14:39:00.897Z,17.63
2022-10-30T14:41:46.184Z,17.56
2022-10-30T14:44:25.596Z,17.48
2022-10-30T14:47:16.823Z,17.40
2022-10-30T14:49:48.599Z,17.30
2022-10-30T14:52:23.112Z,17.20
2022-10-30T14:54:59.969Z,17.10
2022-10-30T14:57:48.167Z,17.00
2022-10-30T15:00:41.523Z,16.91
2022-10-30T15:03:18.468Z,16.83
2022-10-30T15:05:51.584Z,16.73
2022-10-30T15:08:34.159Z,16.65
2022-10-30T15:11:18.116Z,16.55
2022-10-30T15:13:49.626Z,16.47
2022-10-30T15:16:21.929Z,16.37
2022-10-30T15:18:55.799Z,16.31
2022-10-30T15:21:28.931Z,16.19
2022-10-30T15:24:00.589Z,16.11
2022-10-30T15:26:35.626Z,16.03
2022-10-30T15:29:03.937Z,15.94
2022-10-30T15:31:33.223Z,15.86
2022-10-30T15:34:00.810Z,15.79
2022-10-30T15:36:30.552Z,15.71
2022-10-30T15:39:06.237Z,15.61
2022-10-30T15:41:37.580Z,15.50
2022-10-30T15:44:05.576Z,15.40
2022-10-30T15:46:34.629Z,15.30
2022-10-30T15:49:02.219Z,15.21
2022-10-30T15:51:29.820Z,15.12
2022-10-30T15:53:59.411Z,15.02
2022-10-30T15:56:31.730Z,14.95
2022-10-30T15:59:01.774Z,14.89
2022-10-30T16:01:32.835Z,14.86
2022-10-30T16:04:02.072Z,14.80
2022-10-30T16:06:31.709Z,14.76
2022-10-30T16:08:59.628Z,14.70
2022-10-30T16:11:28.133Z,14.64
2022-10-30T16:13:55.659Z,14.59
2022-10-30T16:16:27.259Z,14.54
2022-10-30T16:18:58.931Z,14.50
2022-10-30T16:21:29.602Z,14.46
2022-10-30T16:24:00.811Z,14.43
2022-10-30T16:26:32.676Z,14.43
2022-10-30T16:29:02.003Z,14.39
2022-10-30T16:31:34.472Z,14.37
2022-10-30T16:34:03.840Z,14.33
2022-10-30T16:36:34.643Z,14.31
2022-10-30T16:39:02.641Z,14.28
2022-10-30T16:41:32.339Z,14.26
2022-10-30T16:44:15.295Z,14.25
2022-10-30T16:46:48.427Z,14.21
2022-10-30T16:49:19.201Z,14.17
2022-10-30T16:51:51.904Z,14.12
2022-10-30T16:54:22.229Z,14.09
2022-10-30T16:56:53.857Z,14.05
2022-10-30T16:59:27.901Z,13.99
2022-10-30T17:02:00.218Z,13.94
2022-10-30T17:04:30.238Z,13.92
2022-10-30T17:07:18.607Z,13.88
2022-10-30T17:09:47.840Z,13.86
2022-10-30T17:12:19.572Z,13.85
2022-10-30T17:14:53.385Z,13.83
2022-10-30T17:17:28.974Z,13.81
2022-10-30T17:20:01.724Z,13.82
2022-10-30T17:22:31.668Z,13.80
2022-10-30T17:25:00.419Z,13.78
2022-10-30T17:27:46.584Z,13.76
2022-10-30T17:30:38.584Z,13.73
2022-10-30T17:33:31.341Z,13.69
2022-10-30T17:35:59.110Z,13.68
2022-10-30T17:38:28.322Z,13.65
2022-10-30T17:40:55.868Z,13.65
2022-10-30T17:43:27.260Z,13.65
2022-10-30T17:45:54.791Z,13.64
2022-10-30T17:48:26.274Z,13.62
2022-10-30T17:50:53.934Z,13.60
2022-10-30T17:53:23.870Z,13.58
2022-10-30T17:55:58.888Z,13.57
2022-10-30T17:58:26.492Z,13.54
2022-10-30T18:00:54.080Z,13.50
2022-10-30T18:03:21.629Z,13.45
2022-10-30T18:05:49.638Z,13.40
2022-10-30T18:08:17.173Z,13.37
2022-10-30T18:10:44.760Z,13.35
2022-10-30T18:13:15.127Z,13.34
2022-10-30T18:15:44.958Z,13.30
2022-10-30T18:18:12.741Z,13.26
2022-10-30T18:20:40.458Z,13.22
2022-10-30T18:23:38.859Z,13.17
2022-10-30T18:26:07.184Z,13.13
2022-10-30T18:28:36.076Z,13.09
2022-10-30T18:31:03.977Z,13.05
2022-10-30T18:33:31.534Z,13.02
2022-10-30T18:36:00.022Z,12.99
2022-10-30T18:38:27.564Z,12.96
2022-10-30T18:40:55.136Z,12.92
2022-10-30T18:43:22.653Z,12.91
2022-10-30T18:45:51.531Z,12.88
2022-10-30T18:48:19.057Z,12.85
2022-10-30T18:50:46.616Z,12.81
2022-10-30T18:53:17.281Z,12.76
2022-10-30T18:55:45.216Z,12.73
2022-10-30T18:58:13.061Z,12.69
2022-10-30T19:01:09.977Z,12.67
2022-10-30T19:03:30.420Z,12.66
2022-10-30T19:05:58.045Z,12.63
2022-10-30T19:08:25.588Z,12.60
2022-10-30T19:10:56.613Z,12.58
2022-10-30T19:13:24.579Z,12.54
2022-10-30T19:15:59.860Z,12.51
2022-10-30T19:18:28.767Z,12.47
2022-10-30T19:21:04.591Z,12.44
2022-10-30T19:23:34.357Z,12.41
2022-10-30T19:26:01.945Z,12.41
2022-10-30T19:28:30.721Z,12.40
2022-10-30T19:30:58.306Z,12.41
2022-10-30T19:33:28.354Z,12.41
2022-10-30T19:36:00.863Z,12.40
2022-10-30T19:38:30.068Z,12.37
2022-10-30T19:40:57.904Z,12.34
2022-10-30T19:43:25.560Z,12.32
2022-10-30T19:45:56.670Z,12.30
2022-10-30T19:48:55.411Z,12.25
2022-10-30T19:51:13.406Z,12.21
2022-10-30T19:53:41.578Z,12.17
2022-10-30T19:56:11.969Z,12.14
2022-10-30T19:58:39.507Z,12.09
2022-10-30T20:01:07.126Z,12.06
2022-10-30T20:03:34.725Z,12.01
2022-10-30T20:06:02.256Z,11.99
2022-10-30T20:08:31.656Z,11.96
2022-10-30T20:11:00.797Z,11.94
2022-10-30T20:13:29.961Z,11.90
2022-10-30T20:16:00.666Z,11.89
2022-10-30T20:18:30.599Z,11.87
2022-10-30T20:21:00.171Z,11.86
2022-10-30T20:23:28.603Z,11.84
2022-10-30T20:26:00.442Z,11.81
2022-10-30T20:28:30.950Z,11.81
2022-10-30T20:30:58.726Z,11.80
2022-10-30T20:33:27.151Z,11.81
2022-10-30T20:35:55.579Z,11.80
2022-10-30T20:38:26.053Z,11.81
2022-10-30T20:40:54.196Z,11.81
2022-10-30T20:43:28.214Z,11.81
2022-10-30T20:45:55.755Z,11.80
2022-10-30T20:48:23.272Z,11.81
2022-10-30T20:50:53.026Z,11.82
2022-10-30T20:53:20.628Z,11.82
2022-10-30T20:55:48.203Z,11.83
2022-10-30T20:58:16.034Z,11.82
2022-10-30T21:00:44.977Z,11.79
2022-10-30T21:03:14.269Z,11.74
2022-10-30T21:05:44.732Z,11.72
2022-10-30T21:08:12.880Z,11.68
2022-10-30T21:10:40.589Z,11.66
2022-10-30T21:13:09.703Z,11.64
2022-10-30T21:15:39.360Z,11.62
2022-10-30T21:18:08.343Z,11.60
2022-10-30T21:20:36.863Z,11.57
2022-10-30T21:23:04.756Z,11.54
2022-10-30T21:25:32.860Z,11.50
2022-10-30T21:28:00.615Z,11.47
2022-10-30T21:30:28.272Z,11.44
2022-10-30T21:32:56.074Z,11.42
2022-10-30T21:35:25.047Z,11.38
2022-10-30T21:37:52.609Z,11.35
2022-10-30T21:40:20.142Z,11.30
2022-10-30T21:42:48.821Z,11.28
2022-10-30T21:45:16.589Z,11.28
2022-10-30T21:47:44.131Z,11.26
2022-10-30T21:50:12.604Z,11.27
2022-10-30T21:52:41.856Z,11.27
2022-10-30T21:55:10.077Z,11.25
2022-10-30T21:57:37.583Z,11.26
2022-10-30T22:00:07.331Z,11.24
2022-10-30T22:02:35.189Z,11.27
2022-10-30T22:05:02.738Z,11.29
2022-10-30T22:07:30.318Z,11.29
2022-10-30T22:09:59.195Z,11.32
2022-10-30T22:12:26.850Z,11.35
2022-10-30T22:14:54.391Z,11.36
2022-10-30T22:17:22.053Z,11.37
2022-10-30T22:19:49.926Z,11.38
2022-10-30T22:22:17.439Z,11.42
2022-10-30T22:24:44.977Z,11.44
2022-10-30T22:27:13.844Z,11.46
2022-10-30T22:29:41.385Z,11.49
2022-10-30T22:32:09.024Z,11.50
2022-10-30T22:34:36.562Z,11.54
2022-10-30T22:37:04.098Z,11.55
2022-10-30T22:39:31.673Z,11.55
2022-10-30T22:41:59.304Z,11.56
2022-10-30T22:44:28.544Z,11.56
2022-10-30T22:46:56.060Z,11.59
2022-10-30T22:49:23.604Z,11.62
2022-10-30T22:51:51.115Z,11.67
2022-10-30T22:54:18.644Z,11.67
2022-10-30T22:56:46.178Z,11.71
2022-10-30T22:59:14.910Z,11.74
2022-10-30T23:01:44.201Z,11.75
2022-10-30T23:04:14.017Z,11.73
2022-10-30T23:06:41.662Z,11.73
2022-10-30T23:09:12.827Z,11.73
2022-10-30T23:11:40.340Z,11.71
2022-10-30T23:14:07.893Z,11.68
2022-10-30T23:16:35.458Z,11.65
2022-10-30T23:19:04.623Z,11.63
2022-10-30T23:21:32.628Z,11.62
2022-10-30T23:24:02.527Z,11.62
2022-10-30T23:26:32.192Z,11.59
2022-10-30T23:29:01.400Z,11.58
2022-10-30T23:31:30.757Z,11.59
2022-10-30T23:34:00.031Z,11.58
2022-10-30T23:36:29.455Z,11.58
2022-10-30T23:38:58.416Z,11.56
2022-10-30T23:41:28.463Z,11.58
2022-10-30T23:43:57.147Z,11.62
2022-10-30T23:46:25.008Z,11.64
2022-10-30T23:48:52.584Z,11.64
2022-10-30T23:51:20.533Z,11.68
2022-10-30T23:53:49.785Z,11.70
2022-10-30T23:56:17.643Z,11.71
2022-10-30T23:58:45.908Z,11.70
